sensor_id;sensor_type;location;lat;lon;timestamp;temperature;humidity
9375;DHT22;4727;51.202;6.344;2022-07-30T00:01:52;17.80;1.00
9375;DHT22;4727;51.202;6.344;2022-07-30T00:04:18;17.70;1.00
9375;DHT22;4727;51.202;6.344;2022-07-30T00:06:44;17.70;1.00
9375;DHT22;4727;51.202;6.344;2022-07-30T00:09:10;17.70;1.00
9375;DHT22;4727;51.202;6.344;2022-07-30T00:11:35;17.70;1.00
9375;DHT22;4727;51.202;6.344;2022-07-30T00:14:01;17.70;1.00
9375;DHT22;4727;51.202;6.344;2022-07-30T00:16:27;17.70;1.00
9375;DHT22;4727;51.202;6.344;2022-07-30T00:18:52;17.60;1.00
9375;DHT22;4727;51.202;6.344;2022-07-30T00:21:18;17.60;1.00
9375;DHT22;4727;51.202;6.344;2022-07-30T00:23:44;17.60;1.00
9375;DHT22;4727;51.202;6.344;2022-07-30T00:26:09;17.60;99.90
9375;DHT22;4727;51.202;6.344;2022-07-30T00:28:35;17.60;99.90
9375;DHT22;4727;51.202;6.344;2022-07-30T00:31:00;17.60;1.00
9375;DHT22;4727;51.202;6.344;2022-07-30T00:33:26;17.50;1.00
9375;DHT22;4727;51.202;6.344;2022-07-30T00:35:52;17.50;1.00
9375;DHT22;4727;51.202;6.344;2022-07-30T00:38:17;17.40;1.00
9375;DHT22;4727;51.202;6.344;2022-07-30T00:40:45;17.40;1.00
9375;DHT22;4727;51.202;6.344;2022-07-30T00:43:16;17.40;1.00
9375;DHT22;4727;51.202;6.344;2022-07-30T00:45:42;17.50;1.00
9375;DHT22;4727;51.202;6.344;2022-07-30T00:48:09;17.50;99.90
9375;DHT22;4727;51.202;6.344;2022-07-30T00:50:36;17.50;99.90
9375;DHT22;4727;51.202;6.344;2022-07-30T00:53:02;17.50;99.90
9375;DHT22;4727;51.202;6.344;2022-07-30T00:55:27;17.50;99.90
9375;DHT22;4727;51.202;6.344;2022-07-30T00:57:53;17.40;99.90
9375;DHT22;4727;51.202;6.344;2022-07-30T01:00:19;17.40;99.90
9375;DHT22;4727;51.202;6.344;2022-07-30T01:02:45;17.40;99.90
9375;DHT22;4727;51.202;6.344;2022-07-30T01:05:10;17.40;99.90
9375;DHT22;4727;51.202;6.344;2022-07-30T01:07:36;17.40;99.90
9375;DHT22;4727;51.202;6.344;2022-07-30T01:10:04;17.40;99.90
9375;DHT22;4727;51.202;6.344;2022-07-30T01:12:30;17.50;1.00
9375;DHT22;4727;51.202;6.344;2022-07-30T01:14:57;17.40;99.90
9375;DHT22;4727;51.202;6.344;2022-07-30T01:17:24;17.40;99.90
9375;DHT22;4727;51.202;6.344;2022-07-30T01:19:53;17.50;1.00
9375;DHT22;4727;51.202;6.344;2022-07-30T01:27:49;17.30;99.90
9375;DHT22;4727;51.202;6.344;2022-07-30T01:30:18;17.30;99.90
9375;DHT22;4727;51.202;6.344;2022-07-30T01:32:45;17.30;99.90
9375;DHT22;4727;51.202;6.344;2022-07-30T01:35:12;17.30;99.90
9375;DHT22;4727;51.202;6.344;2022-07-30T01:37:40;17.20;1.00
9375;DHT22;4727;51.202;6.344;2022-07-30T01:40:08;17.10;1.00
9375;DHT22;4727;51.202;6.344;2022-07-30T01:42:35;17.10;10.00
9375;DHT22;4727;51.202;6.344;2022-07-30T01:45:03;17.10;1.00
9375;DHT22;4727;51.202;6.344;2022-07-30T01:47:32;17.00;99.90
9375;DHT22;4727;51.202;6.344;2022-07-30T01:49:59;16.90;1.00
9375;DHT22;4727;51.202;6.344;2022-07-30T01:52:26;16.90;1.00
9375;DHT22;4727;51.202;6.344;2022-07-30T01:54:55;16.90;1.00
9375;DHT22;4727;51.202;6.344;2022-07-30T01:57:22;16.90;1.00
9375;DHT22;4727;51.202;6.344;2022-07-30T01:59:51;16.80;99.90
9375;DHT22;4727;51.202;6.344;2022-07-30T02:02:17;16.70;99.90
9375;DHT22;4727;51.202;6.344;2022-07-30T02:04:43;16.70;99.90
9375;DHT22;4727;51.202;6.344;2022-07-30T02:07:16;16.70;1.00
9375;DHT22;4727;51.202;6.344;2022-07-30T02:09:56;16.70;1.00
9375;DHT22;4727;51.202;6.344;2022-07-30T02:12:25;16.80;99.90
9375;DHT22;4727;51.202;6.344;2022-07-30T02:15:01;16.80;1.00
9375;DHT22;4727;51.202;6.344;2022-07-30T02:17:55;16.70;99.90
9375;DHT22;4727;51.202;6.344;2022-07-30T02:20:25;16.70;1.00
9375;DHT22;4727;51.202;6.344;2022-07-30T02:22:54;16.60;99.90
9375;DHT22;4727;51.202;6.344;2022-07-30T02:25:21;16.70;99.90
9375;DHT22;4727;51.202;6.344;2022-07-30T02:27:51;16.70;96.60
9375;DHT22;4727;51.202;6.344;2022-07-30T02:30:18;16.70;99.90
9375;DHT22;4727;51.202;6.344;2022-07-30T02:32:46;16.60;99.90
9375;DHT22;4727;51.202;6.344;2022-07-30T02:35:16;16.50;99.90
9375;DHT22;4727;51.202;6.344;2022-07-30T02:37:44;16.60;99.90
9375;DHT22;4727;51.202;6.344;2022-07-30T02:40:16;16.50;1.00
9375;DHT22;4727;51.202;6.344;2022-07-30T02:42:45;16.50;1.00
9375;DHT22;4727;51.202;6.344;2022-07-30T02:45:12;16.60;99.90
9375;DHT22;4727;51.202;6.344;2022-07-30T02:47:40;16.60;99.90
9375;DHT22;4727;51.202;6.344;2022-07-30T02:50:08;16.70;99.90
9375;DHT22;4727;51.202;6.344;2022-07-30T02:52:36;16.60;99.90
9375;DHT22;4727;51.202;6.344;2022-07-30T02:55:04;16.50;1.00
9375;DHT22;4727;51.202;6.344;2022-07-30T02:57:30;16.50;99.90
9375;DHT22;4727;51.202;6.344;2022-07-30T02:59:57;16.40;99.90
9375;DHT22;4727;51.202;6.344;2022-07-30T03:02:24;16.30;1.00
9375;DHT22;4727;51.202;6.344;2022-07-30T03:04:50;16.20;1.00
9375;DHT22;4727;51.202;6.344;2022-07-30T03:07:17;16.30;1.00
9375;DHT22;4727;51.202;6.344;2022-07-30T03:09:45;16.30;1.00
9375;DHT22;4727;51.202;6.344;2022-07-30T03:12:12;16.20;1.00
9375;DHT22;4727;51.202;6.344;2022-07-30T03:14:38;16.10;99.90
9375;DHT22;4727;51.202;6.344;2022-07-30T03:17:05;16.10;99.90
9375;DHT22;4727;51.202;6.344;2022-07-30T03:19:32;16.10;99.90
9375;DHT22;4727;51.202;6.344;2022-07-30T03:22:02;16.10;1.00
9375;DHT22;4727;51.202;6.344;2022-07-30T03:24:29;16.00;1.00
9375;DHT22;4727;51.202;6.344;2022-07-30T03:26:55;16.00;1.00
9375;DHT22;4727;51.202;6.344;2022-07-30T03:29:24;15.90;1.00
9375;DHT22;4727;51.202;6.344;2022-07-30T03:31:51;15.80;1.00
9375;DHT22;4727;51.202;6.344;2022-07-30T03:34:17;15.70;93.10
9375;DHT22;4727;51.202;6.344;2022-07-30T03:36:43;15.70;12.60
9375;DHT22;4727;51.202;6.344;2022-07-30T03:39:09;15.60;99.90
9375;DHT22;4727;51.202;6.344;2022-07-30T03:41:36;15.50;99.90
9375;DHT22;4727;51.202;6.344;2022-07-30T03:44:02;15.50;99.90
9375;DHT22;4727;51.202;6.344;2022-07-30T03:46:28;15.40;99.90
9375;DHT22;4727;51.202;6.344;2022-07-30T03:48:56;15.30;99.90
9375;DHT22;4727;51.202;6.344;2022-07-30T03:51:22;15.30;99.90
9375;DHT22;4727;51.202;6.344;2022-07-30T03:53:47;15.30;99.90
9375;DHT22;4727;51.202;6.344;2022-07-30T03:56:16;15.30;99.90
9375;DHT22;4727;51.202;6.344;2022-07-30T03:58:42;15.30;99.90
9375;DHT22;4727;51.202;6.344;2022-07-30T04:01:08;15.40;99.90
9375;DHT22;4727;51.202;6.344;2022-07-30T04:03:33;15.50;99.90
9375;DHT22;4727;51.202;6.344;2022-07-30T04:05:59;15.50;99.90
9375;DHT22;4727;51.202;6.344;2022-07-30T04:08:26;15.50;99.90
9375;DHT22;4727;51.202;6.344;2022-07-30T04:10:52;15.50;99.90
9375;DHT22;4727;51.202;6.344;2022-07-30T04:13:17;15.60;99.90
9375;DHT22;4727;51.202;6.344;2022-07-30T04:16:08;15.70;99.90
9375;DHT22;4727;51.202;6.344;2022-07-30T04:18:37;15.80;99.90
9375;DHT22;4727;51.202;6.344;2022-07-30T04:21:06;15.90;99.90
9375;DHT22;4727;51.202;6.344;2022-07-30T04:23:32;15.90;99.90
9375;DHT22;4727;51.202;6.344;2022-07-30T04:25:59;16.00;99.90
9375;DHT22;4727;51.202;6.344;2022-07-30T04:28:26;16.00;99.90
9375;DHT22;4727;51.202;6.344;2022-07-30T04:30:54;16.10;99.90
9375;DHT22;4727;51.202;6.344;2022-07-30T04:33:19;16.10;99.90
9375;DHT22;4727;51.202;6.344;2022-07-30T04:35:45;16.10;99.90
9375;DHT22;4727;51.202;6.344;2022-07-30T04:38:11;16.10;99.90
9375;DHT22;4727;51.202;6.344;2022-07-30T04:40:39;16.10;99.90
9375;DHT22;4727;51.202;6.344;2022-07-30T04:43:05;16.10;99.90
9375;DHT22;4727;51.202;6.344;2022-07-30T04:45:30;16.00;99.90
9375;DHT22;4727;51.202;6.344;2022-07-30T04:47:56;16.00;99.90
9375;DHT22;4727;51.202;6.344;2022-07-30T04:50:24;16.10;99.90
9375;DHT22;4727;51.202;6.344;2022-07-30T04:52:51;16.10;99.90
9375;DHT22;4727;51.202;6.344;2022-07-30T04:55:17;16.00;99.90
9375;DHT22;4727;51.202;6.344;2022-07-30T04:57:45;16.00;99.90
9375;DHT22;4727;51.202;6.344;2022-07-30T05:00:13;16.00;99.90
9375;DHT22;4727;51.202;6.344;2022-07-30T05:02:39;16.10;99.90
9375;DHT22;4727;51.202;6.344;2022-07-30T05:05:06;16.20;99.90
9375;DHT22;4727;51.202;6.344;2022-07-30T05:07:32;16.00;99.90
9375;DHT22;4727;51.202;6.344;2022-07-30T05:09:58;16.00;99.90
9375;DHT22;4727;51.202;6.344;2022-07-30T05:12:37;16.00;99.90
9375;DHT22;4727;51.202;6.344;2022-07-30T05:15:08;16.10;99.90
9375;DHT22;4727;51.202;6.344;2022-07-30T05:17:34;16.10;99.90
9375;DHT22;4727;51.202;6.344;2022-07-30T05:19:59;16.00;99.90
9375;DHT22;4727;51.202;6.344;2022-07-30T05:22:25;16.10;99.90
9375;DHT22;4727;51.202;6.344;2022-07-30T05:24:55;16.20;99.90
9375;DHT22;4727;51.202;6.344;2022-07-30T05:27:20;16.30;99.90
9375;DHT22;4727;51.202;6.344;2022-07-30T05:29:46;16.50;99.90
9375;DHT22;4727;51.202;6.344;2022-07-30T05:32:12;16.50;99.90
9375;DHT22;4727;51.202;6.344;2022-07-30T05:34:38;16.50;99.90
9375;DHT22;4727;51.202;6.344;2022-07-30T05:37:03;16.60;99.90
9375;DHT22;4727;51.202;6.344;2022-07-30T05:39:29;16.40;99.90
9375;DHT22;4727;51.202;6.344;2022-07-30T05:41:55;16.40;99.90
9375;DHT22;4727;51.202;6.344;2022-07-30T05:44:20;16.40;99.90
9375;DHT22;4727;51.202;6.344;2022-07-30T05:46:46;16.40;99.90
9375;DHT22;4727;51.202;6.344;2022-07-30T05:49:11;16.30;99.90
9375;DHT22;4727;51.202;6.344;2022-07-30T05:51:37;16.30;99.90
9375;DHT22;4727;51.202;6.344;2022-07-30T05:54:03;16.40;99.90
9375;DHT22;4727;51.202;6.344;2022-07-30T05:56:29;16.40;99.90
9375;DHT22;4727;51.202;6.344;2022-07-30T05:58:55;16.40;99.90
9375;DHT22;4727;51.202;6.344;2022-07-30T06:01:21;16.40;99.90
9375;DHT22;4727;51.202;6.344;2022-07-30T06:03:47;16.40;99.90
9375;DHT22;4727;51.202;6.344;2022-07-30T06:06:12;16.50;99.90
9375;DHT22;4727;51.202;6.344;2022-07-30T06:08:38;16.50;99.90
9375;DHT22;4727;51.202;6.344;2022-07-30T06:11:04;16.60;99.90
9375;DHT22;4727;51.202;6.344;2022-07-30T06:13:29;16.60;99.90
9375;DHT22;4727;51.202;6.344;2022-07-30T06:15:55;16.60;99.90
9375;DHT22;4727;51.202;6.344;2022-07-30T06:18:21;16.70;99.90
9375;DHT22;4727;51.202;6.344;2022-07-30T06:20:47;16.70;99.90
9375;DHT22;4727;51.202;6.344;2022-07-30T06:23:15;16.80;99.90
9375;DHT22;4727;51.202;6.344;2022-07-30T06:25:41;16.90;99.90
9375;DHT22;4727;51.202;6.344;2022-07-30T06:28:07;17.00;99.90
9375;DHT22;4727;51.202;6.344;2022-07-30T06:30:32;17.00;99.90
9375;DHT22;4727;51.202;6.344;2022-07-30T06:32:58;17.00;99.90
9375;DHT22;4727;51.202;6.344;2022-07-30T06:35:23;16.80;99.90
9375;DHT22;4727;51.202;6.344;2022-07-30T06:37:49;16.90;99.90
9375;DHT22;4727;51.202;6.344;2022-07-30T06:40:14;16.80;99.90
9375;DHT22;4727;51.202;6.344;2022-07-30T06:42:40;16.80;99.90
9375;DHT22;4727;51.202;6.344;2022-07-30T06:45:06;16.80;99.90
9375;DHT22;4727;51.202;6.344;2022-07-30T06:47:31;16.90;99.90
9375;DHT22;4727;51.202;6.344;2022-07-30T06:50:00;17.00;99.90
9375;DHT22;4727;51.202;6.344;2022-07-30T06:52:26;17.10;99.90
9375;DHT22;4727;51.202;6.344;2022-07-30T06:54:51;17.20;99.90
9375;DHT22;4727;51.202;6.344;2022-07-30T06:57:17;17.10;99.90
9375;DHT22;4727;51.202;6.344;2022-07-30T06:59:43;17.10;99.90
9375;DHT22;4727;51.202;6.344;2022-07-30T07:02:09;17.10;99.90
9375;DHT22;4727;51.202;6.344;2022-07-30T07:04:35;17.20;79.90
9375;DHT22;4727;51.202;6.344;2022-07-30T07:07:00;17.30;1.00
9375;DHT22;4727;51.202;6.344;2022-07-30T07:09:26;17.40;1.00
9375;DHT22;4727;51.202;6.344;2022-07-30T07:11:51;17.40;99.90
9375;DHT22;4727;51.202;6.344;2022-07-30T07:14:17;17.50;99.90
9375;DHT22;4727;51.202;6.344;2022-07-30T07:16:42;17.60;99.90
9375;DHT22;4727;51.202;6.344;2022-07-30T07:19:08;17.60;1.00
9375;DHT22;4727;51.202;6.344;2022-07-30T07:21:34;17.70;1.00
9375;DHT22;4727;51.202;6.344;2022-07-30T07:23:59;17.80;99.90
9375;DHT22;4727;51.202;6.344;2022-07-30T07:26:27;17.90;1.00
9375;DHT22;4727;51.202;6.344;2022-07-30T07:28:53;18.00;1.00
9375;DHT22;4727;51.202;6.344;2022-07-30T07:31:18;18.00;1.00
9375;DHT22;4727;51.202;6.344;2022-07-30T07:33:44;18.10;1.00
9375;DHT22;4727;51.202;6.344;2022-07-30T07:36:11;18.20;99.90
9375;DHT22;4727;51.202;6.344;2022-07-30T07:38:37;18.30;1.00
9375;DHT22;4727;51.202;6.344;2022-07-30T07:41:03;18.30;99.90
9375;DHT22;4727;51.202;6.344;2022-07-30T07:43:30;18.20;97.20
9375;DHT22;4727;51.202;6.344;2022-07-30T07:45:55;18.20;1.00
9375;DHT22;4727;51.202;6.344;2022-07-30T07:48:21;18.20;99.90
9375;DHT22;4727;51.202;6.344;2022-07-30T07:50:47;18.20;99.90
9375;DHT22;4727;51.202;6.344;2022-07-30T07:53:12;18.30;1.00
9375;DHT22;4727;51.202;6.344;2022-07-30T07:55:38;18.20;1.00
9375;DHT22;4727;51.202;6.344;2022-07-30T07:58:04;18.30;99.90
9375;DHT22;4727;51.202;6.344;2022-07-30T08:00:30;18.40;1.00
9375;DHT22;4727;51.202;6.344;2022-07-30T08:02:55;18.60;20.10
9375;DHT22;4727;51.202;6.344;2022-07-30T08:05:21;18.70;99.90
9375;DHT22;4727;51.202;6.344;2022-07-30T08:07:47;18.90;99.90
9375;DHT22;4727;51.202;6.344;2022-07-30T08:10:12;19.00;99.90
9375;DHT22;4727;51.202;6.344;2022-07-30T08:12:40;19.00;1.00
9375;DHT22;4727;51.202;6.344;2022-07-30T08:15:07;19.00;99.90
9375;DHT22;4727;51.202;6.344;2022-07-30T08:17:47;19.10;99.90
9375;DHT22;4727;51.202;6.344;2022-07-30T08:20:13;19.30;1.00
9375;DHT22;4727;51.202;6.344;2022-07-30T08:22:40;19.30;1.00
9375;DHT22;4727;51.202;6.344;2022-07-30T08:25:07;19.30;1.00
9375;DHT22;4727;51.202;6.344;2022-07-30T08:27:32;19.30;1.00
9375;DHT22;4727;51.202;6.344;2022-07-30T08:30:04;19.40;1.00
9375;DHT22;4727;51.202;6.344;2022-07-30T08:32:30;19.40;1.00
9375;DHT22;4727;51.202;6.344;2022-07-30T08:34:55;19.40;1.00
9375;DHT22;4727;51.202;6.344;2022-07-30T08:37:21;19.30;1.00
9375;DHT22;4727;51.202;6.344;2022-07-30T08:39:46;19.30;99.90
9375;DHT22;4727;51.202;6.344;2022-07-30T08:42:12;19.30;1.00
9375;DHT22;4727;51.202;6.344;2022-07-30T08:44:40;19.40;69.10
9375;DHT22;4727;51.202;6.344;2022-07-30T08:47:08;19.60;99.90
9375;DHT22;4727;51.202;6.344;2022-07-30T08:49:36;19.70;99.90
9375;DHT22;4727;51.202;6.344;2022-07-30T08:52:02;19.60;1.00
9375;DHT22;4727;51.202;6.344;2022-07-30T08:54:29;19.50;1.00
9375;DHT22;4727;51.202;6.344;2022-07-30T08:56:54;19.40;99.90
9375;DHT22;4727;51.202;6.344;2022-07-30T08:59:22;19.60;99.90
9375;DHT22;4727;51.202;6.344;2022-07-30T09:01:48;19.70;1.00
9375;DHT22;4727;51.202;6.344;2022-07-30T09:04:16;19.80;99.90
9375;DHT22;4727;51.202;6.344;2022-07-30T09:06:42;19.80;1.00
9375;DHT22;4727;51.202;6.344;2022-07-30T09:09:07;19.90;1.00
9375;DHT22;4727;51.202;6.344;2022-07-30T09:11:33;19.90;1.00
9375;DHT22;4727;51.202;6.344;2022-07-30T09:14:08;20.00;99.90
9375;DHT22;4727;51.202;6.344;2022-07-30T09:16:34;20.10;1.00
9375;DHT22;4727;51.202;6.344;2022-07-30T09:19:11;20.30;81.00
9375;DHT22;4727;51.202;6.344;2022-07-30T09:21:37;20.30;87.00
9375;DHT22;4727;51.202;6.344;2022-07-30T09:24:09;20.20;99.90
9375;DHT22;4727;51.202;6.344;2022-07-30T09:26:57;20.10;99.90
9375;DHT22;4727;51.202;6.344;2022-07-30T09:29:27;20.10;99.90
9375;DHT22;4727;51.202;6.344;2022-07-30T09:32:02;20.10;1.00
9375;DHT22;4727;51.202;6.344;2022-07-30T09:34:33;20.20;99.90
9375;DHT22;4727;51.202;6.344;2022-07-30T09:37:02;20.30;99.90
9375;DHT22;4727;51.202;6.344;2022-07-30T09:39:35;20.40;99.90
9375;DHT22;4727;51.202;6.344;2022-07-30T09:42:02;20.50;99.90
9375;DHT22;4727;51.202;6.344;2022-07-30T09:44:29;20.50;99.90
9375;DHT22;4727;51.202;6.344;2022-07-30T09:46:56;20.60;99.90
9375;DHT22;4727;51.202;6.344;2022-07-30T09:49:27;20.70;1.00
9375;DHT22;4727;51.202;6.344;2022-07-30T09:51:54;20.70;23.10
9375;DHT22;4727;51.202;6.344;2022-07-30T09:54:20;20.80;1.00
9375;DHT22;4727;51.202;6.344;2022-07-30T09:56:46;20.70;1.00
9375;DHT22;4727;51.202;6.344;2022-07-30T09:59:32;20.90;99.90
9375;DHT22;4727;51.202;6.344;2022-07-30T10:01:58;21.00;99.90
9375;DHT22;4727;51.202;6.344;2022-07-30T10:04:28;21.10;1.00
9375;DHT22;4727;51.202;6.344;2022-07-30T10:06:55;21.10;68.70
9375;DHT22;4727;51.202;6.344;2022-07-30T10:11:56;21.40;1.00
9375;DHT22;4727;51.202;6.344;2022-07-30T10:14:23;21.60;1.00
9375;DHT22;4727;51.202;6.344;2022-07-30T10:16:50;21.60;1.00
9375;DHT22;4727;51.202;6.344;2022-07-30T10:19:16;21.70;1.00
9375;DHT22;4727;51.202;6.344;2022-07-30T10:21:43;21.70;1.00
9375;DHT22;4727;51.202;6.344;2022-07-30T10:24:09;21.80;1.00
9375;DHT22;4727;51.202;6.344;2022-07-30T10:26:36;21.70;1.00
9375;DHT22;4727;51.202;6.344;2022-07-30T10:29:02;21.80;1.70
9375;DHT22;4727;51.202;6.344;2022-07-30T10:31:28;21.90;1.00
9375;DHT22;4727;51.202;6.344;2022-07-30T10:33:54;21.70;1.00
9375;DHT22;4727;51.202;6.344;2022-07-30T10:36:21;21.80;1.00
9375;DHT22;4727;51.202;6.344;2022-07-30T10:38:48;21.90;40.50
9375;DHT22;4727;51.202;6.344;2022-07-30T10:44:27;22.10;99.90
9375;DHT22;4727;51.202;6.344;2022-07-30T10:47:03;22.20;1.00
9375;DHT22;4727;51.202;6.344;2022-07-30T10:49:30;22.10;99.90
9375;DHT22;4727;51.202;6.344;2022-07-30T10:51:56;22.10;99.90
9375;DHT22;4727;51.202;6.344;2022-07-30T10:54:35;22.20;99.90
9375;DHT22;4727;51.202;6.344;2022-07-30T10:57:17;22.30;99.90
9375;DHT22;4727;51.202;6.344;2022-07-30T11:02:22;22.50;99.90
9375;DHT22;4727;51.202;6.344;2022-07-30T11:04:48;22.50;99.90
9375;DHT22;4727;51.202;6.344;2022-07-30T11:09:50;22.70;99.90
9375;DHT22;4727;51.202;6.344;2022-07-30T11:15:09;22.80;20.80
9375;DHT22;4727;51.202;6.344;2022-07-30T11:20:26;22.90;99.90
9375;DHT22;4727;51.202;6.344;2022-07-30T11:22:52;23.00;99.90
9375;DHT22;4727;51.202;6.344;2022-07-30T11:27:48;23.00;99.90
9375;DHT22;4727;51.202;6.344;2022-07-30T11:32:50;23.20;99.90
9375;DHT22;4727;51.202;6.344;2022-07-30T11:35:19;23.30;99.90
9375;DHT22;4727;51.202;6.344;2022-07-30T11:40:33;23.40;99.90
9375;DHT22;4727;51.202;6.344;2022-07-30T11:43:22;23.40;99.90
9375;DHT22;4727;51.202;6.344;2022-07-30T11:46:09;23.30;99.90
9375;DHT22;4727;51.202;6.344;2022-07-30T11:48:40;23.40;99.90
9375;DHT22;4727;51.202;6.344;2022-07-30T11:51:07;23.40;99.90
9375;DHT22;4727;51.202;6.344;2022-07-30T11:53:33;23.50;99.90
9375;DHT22;4727;51.202;6.344;2022-07-30T11:56:01;23.60;99.90
9375;DHT22;4727;51.202;6.344;2022-07-30T12:00:54;23.80;99.90
9375;DHT22;4727;51.202;6.344;2022-07-30T12:03:22;23.90;99.90
9375;DHT22;4727;51.202;6.344;2022-07-30T12:05:48;23.90;1.00
9375;DHT22;4727;51.202;6.344;2022-07-30T12:08:14;23.90;11.00
9375;DHT22;4727;51.202;6.344;2022-07-30T12:10:40;24.10;9.50
9375;DHT22;4727;51.202;6.344;2022-07-30T12:13:11;24.10;9.40
9375;DHT22;4727;51.202;6.344;2022-07-30T12:15:40;24.20;1.00
9375;DHT22;4727;51.202;6.344;2022-07-30T12:18:06;24.20;49.20
9375;DHT22;4727;51.202;6.344;2022-07-30T12:20:32;24.30;99.90
9375;DHT22;4727;51.202;6.344;2022-07-30T12:22:58;24.30;1.00
9375;DHT22;4727;51.202;6.344;2022-07-30T12:25:24;24.30;1.00
9375;DHT22;4727;51.202;6.344;2022-07-30T12:27:50;24.50;1.00
9375;DHT22;4727;51.202;6.344;2022-07-30T12:30:17;24.50;1.00
9375;DHT22;4727;51.202;6.344;2022-07-30T12:32:43;24.50;1.00
9375;DHT22;4727;51.202;6.344;2022-07-30T12:35:10;24.70;1.00
9375;DHT22;4727;51.202;6.344;2022-07-30T12:37:36;24.80;1.00
9375;DHT22;4727;51.202;6.344;2022-07-30T12:40:10;24.80;1.00
9375;DHT22;4727;51.202;6.344;2022-07-30T12:42:51;24.80;1.00
9375;DHT22;4727;51.202;6.344;2022-07-30T12:45:29;25.00;1.00
9375;DHT22;4727;51.202;6.344;2022-07-30T12:47:56;25.20;1.00
9375;DHT22;4727;51.202;6.344;2022-07-30T12:50:22;25.40;1.00
9375;DHT22;4727;51.202;6.344;2022-07-30T12:52:50;25.50;1.00
9375;DHT22;4727;51.202;6.344;2022-07-30T12:55:17;25.80;1.00
9375;DHT22;4727;51.202;6.344;2022-07-30T12:58:01;25.90;99.90
9375;DHT22;4727;51.202;6.344;2022-07-30T13:00:29;25.80;1.00
9375;DHT22;4727;51.202;6.344;2022-07-30T13:02:56;25.90;99.90
9375;DHT22;4727;51.202;6.344;2022-07-30T13:05:42;25.50;99.90
9375;DHT22;4727;51.202;6.344;2022-07-30T13:08:07;25.80;99.90
9375;DHT22;4727;51.202;6.344;2022-07-30T13:10:33;26.10;1.00
9375;DHT22;4727;51.202;6.344;2022-07-30T13:12:58;26.00;99.90
9375;DHT22;4727;51.202;6.344;2022-07-30T13:15:24;25.80;1.00
9375;DHT22;4727;51.202;6.344;2022-07-30T13:17:50;25.90;1.00
9375;DHT22;4727;51.202;6.344;2022-07-30T13:20:16;25.90;1.00
9375;DHT22;4727;51.202;6.344;2022-07-30T13:22:43;26.20;99.90
9375;DHT22;4727;51.202;6.344;2022-07-30T13:25:09;26.20;99.90
9375;DHT22;4727;51.202;6.344;2022-07-30T13:27:35;26.20;99.90
9375;DHT22;4727;51.202;6.344;2022-07-30T13:30:02;26.20;99.90
9375;DHT22;4727;51.202;6.344;2022-07-30T13:32:28;26.20;99.90
9375;DHT22;4727;51.202;6.344;2022-07-30T13:34:54;26.20;99.90
9375;DHT22;4727;51.202;6.344;2022-07-30T13:37:19;26.50;99.90
9375;DHT22;4727;51.202;6.344;2022-07-30T13:39:45;26.80;99.90
9375;DHT22;4727;51.202;6.344;2022-07-30T13:42:10;26.90;99.90
9375;DHT22;4727;51.202;6.344;2022-07-30T13:44:36;26.60;99.90
9375;DHT22;4727;51.202;6.344;2022-07-30T13:47:02;26.60;99.90
9375;DHT22;4727;51.202;6.344;2022-07-30T13:49:28;26.40;99.90
9375;DHT22;4727;51.202;6.344;2022-07-30T13:51:54;26.60;99.90
9375;DHT22;4727;51.202;6.344;2022-07-30T13:54:19;26.40;99.90
9375;DHT22;4727;51.202;6.344;2022-07-30T13:56:45;26.60;99.90
9375;DHT22;4727;51.202;6.344;2022-07-30T13:59:10;26.80;99.90
9375;DHT22;4727;51.202;6.344;2022-07-30T14:01:36;26.90;99.90
9375;DHT22;4727;51.202;6.344;2022-07-30T14:04:02;27.00;99.90
9375;DHT22;4727;51.202;6.344;2022-07-30T14:06:28;27.50;99.90
9375;DHT22;4727;51.202;6.344;2022-07-30T14:08:53;27.70;99.90
9375;DHT22;4727;51.202;6.344;2022-07-30T14:11:19;27.70;99.90
9375;DHT22;4727;51.202;6.344;2022-07-30T14:13:45;28.00;99.90
9375;DHT22;4727;51.202;6.344;2022-07-30T14:16:10;28.30;99.90
9375;DHT22;4727;51.202;6.344;2022-07-30T14:18:36;28.40;99.90
9375;DHT22;4727;51.202;6.344;2022-07-30T14:21:02;27.80;99.90
9375;DHT22;4727;51.202;6.344;2022-07-30T14:23:27;27.70;99.90
9375;DHT22;4727;51.202;6.344;2022-07-30T14:25:55;28.00;99.90
9375;DHT22;4727;51.202;6.344;2022-07-30T14:28:20;28.30;99.90
9375;DHT22;4727;51.202;6.344;2022-07-30T14:30:46;28.70;99.90
9375;DHT22;4727;51.202;6.344;2022-07-30T14:33:11;28.90;99.90
9375;DHT22;4727;51.202;6.344;2022-07-30T14:35:37;29.20;99.90
9375;DHT22;4727;51.202;6.344;2022-07-30T14:38:03;29.40;99.90
9375;DHT22;4727;51.202;6.344;2022-07-30T14:40:28;29.00;99.90
9375;DHT22;4727;51.202;6.344;2022-07-30T14:42:54;28.30;99.90
9375;DHT22;4727;51.202;6.344;2022-07-30T14:45:20;28.50;99.90
9375;DHT22;4727;51.202;6.344;2022-07-30T14:47:45;28.90;99.90
9375;DHT22;4727;51.202;6.344;2022-07-30T14:50:11;28.70;99.90
9375;DHT22;4727;51.202;6.344;2022-07-30T14:52:37;28.70;99.90
9375;DHT22;4727;51.202;6.344;2022-07-30T14:55:07;29.10;99.90
9375;DHT22;4727;51.202;6.344;2022-07-30T14:57:33;29.30;94.80
9375;DHT22;4727;51.202;6.344;2022-07-30T14:59:59;29.30;99.90
9375;DHT22;4727;51.202;6.344;2022-07-30T15:02:25;29.20;87.30
9375;DHT22;4727;51.202;6.344;2022-07-30T15:04:50;29.20;47.80
9375;DHT22;4727;51.202;6.344;2022-07-30T15:07:16;29.10;55.40
9375;DHT22;4727;51.202;6.344;2022-07-30T15:09:42;29.00;78.30
9375;DHT22;4727;51.202;6.344;2022-07-30T15:12:08;28.90;99.90
9375;DHT22;4727;51.202;6.344;2022-07-30T15:14:38;29.00;99.90
9375;DHT22;4727;51.202;6.344;2022-07-30T15:17:03;29.20;91.30
9375;DHT22;4727;51.202;6.344;2022-07-30T15:19:30;29.30;91.60
9375;DHT22;4727;51.202;6.344;2022-07-30T15:21:56;29.20;90.00
9375;DHT22;4727;51.202;6.344;2022-07-30T15:24:23;29.30;88.70
9375;DHT22;4727;51.202;6.344;2022-07-30T15:26:49;29.30;50.10
9375;DHT22;4727;51.202;6.344;2022-07-30T15:29:14;29.20;48.50
9375;DHT22;4727;51.202;6.344;2022-07-30T15:31:40;29.30;51.90
9375;DHT22;4727;51.202;6.344;2022-07-30T15:34:05;29.40;42.30
9375;DHT22;4727;51.202;6.344;2022-07-30T15:36:36;29.30;17.70
9375;DHT22;4727;51.202;6.344;2022-07-30T15:39:03;29.20;17.80
9375;DHT22;4727;51.202;6.344;2022-07-30T15:41:29;29.20;28.90
9375;DHT22;4727;51.202;6.344;2022-07-30T15:43:54;29.30;53.80
9375;DHT22;4727;51.202;6.344;2022-07-30T15:46:20;29.20;43.10
9375;DHT22;4727;51.202;6.344;2022-07-30T15:48:46;29.50;26.90
9375;DHT22;4727;51.202;6.344;2022-07-30T15:51:11;29.80;12.20
9375;DHT22;4727;51.202;6.344;2022-07-30T15:53:37;29.80;1.00
9375;DHT22;4727;51.202;6.344;2022-07-30T15:56:03;29.60;11.10
9375;DHT22;4727;51.202;6.344;2022-07-30T15:58:29;29.70;21.00
9375;DHT22;4727;51.202;6.344;2022-07-30T16:00:54;29.50;19.90
9375;DHT22;4727;51.202;6.344;2022-07-30T16:03:20;29.30;20.10
9375;DHT22;4727;51.202;6.344;2022-07-30T16:05:46;29.00;40.30
9375;DHT22;4727;51.202;6.344;2022-07-30T16:08:12;29.10;50.00
9375;DHT22;4727;51.202;6.344;2022-07-30T16:10:37;28.90;38.40
9375;DHT22;4727;51.202;6.344;2022-07-30T16:13:05;28.70;90.90
9375;DHT22;4727;51.202;6.344;2022-07-30T16:15:31;28.80;90.00
9375;DHT22;4727;51.202;6.344;2022-07-30T16:17:57;28.80;98.20
9375;DHT22;4727;51.202;6.344;2022-07-30T16:20:23;28.80;99.80
9375;DHT22;4727;51.202;6.344;2022-07-30T16:22:49;28.90;99.90
9375;DHT22;4727;51.202;6.344;2022-07-30T16:25:14;29.00;99.90
9375;DHT22;4727;51.202;6.344;2022-07-30T16:27:40;29.10;79.50
9375;DHT22;4727;51.202;6.344;2022-07-30T16:30:06;29.10;91.00
9375;DHT22;4727;51.202;6.344;2022-07-30T16:32:31;29.10;99.80
9375;DHT22;4727;51.202;6.344;2022-07-30T16:34:57;29.00;94.10
9375;DHT22;4727;51.202;6.344;2022-07-30T16:37:23;28.90;99.90
9375;DHT22;4727;51.202;6.344;2022-07-30T16:39:48;28.80;99.90